Rostov-na-donu — UGNT — position and weather

sailwx.info

Track history (hours):
 
Tides and Currents Weather Stations Pressure Air Temp Water Temp Dewpoint Dewpoint Depression Visibility Wind Speed Wind Dir Waves Ship Positions

Rostov-na-donu

Last reported at 2018-Jul-12 16:05 UTC. Time now 2018-Jul-22 04:57 UTC.
Position N 45°31' E 036°46'.
Warning: this ship's position is 9 days out of date.

Length 139 m; draft 2.8 m.

Type: Cargo ship. MMSI: 273429570.

Date/timePositionNaut miles runAvg speedWind from/ knotsBaromVisibWave heightAir tempDewpointWater temp
2018-Jul-12 16:05N 45°31' E 036°46'2 7.8
2018-Jul-12 15:49N 45°29' E 036°44'2 7.6
2018-Jul-12 15:31N 45°27' E 036°42'4 7.5
2018-Jul-12 14:58N 45°23' E 036°41'3 6.4
2018-Jul-12 14:30N 45°21' E 036°39'4 7.3
2018-Jul-12 14:00N 45°19' E 036°34'4 6.5
2018-Jul-12 13:25N 45°17' E 036°29'3 6.0
2018-Jul-12 13:00N 45°15' E 036°29'1 0.3
2018-Jul-12 11:26N 45°14' E 036°29'5 0.1
2018-Jul-10 23:15N 45°19' E 036°32'2 7.3
2018-Jul-10 23:00N 45°20' E 036°35'4 7.3
2018-Jul-10 22:30N 45°21' E 036°39'4 6.7
2018-Jul-10 21:59N 45°25' E 036°41'3 6.8
2018-Jul-10 21:30N 45°28' E 036°39'  
2018-Jul-04 06:11N 45°29' E 036°44'1 6.5
2018-Jul-04 06:00N 45°28' E 036°43'3 6.4
2018-Jul-04 05:30N 45°26' E 036°42'3 6.5
2018-Jul-04 05:00N 45°22' E 036°40'3 6.3
2018-Jul-04 04:30N 45°20' E 036°37'4 7.3
2018-Jul-04 04:00N 45°19' E 036°33'  
Track history (hours):
 
Tides and Currents Weather Stations Pressure Air Temp Water Temp Dewpoint Dewpoint Depression Visibility Wind Speed Wind Dir Waves Ship Positions

Rostov-na-donu

Last reported at 2018-Jul-12 16:05 UTC. Time now 2018-Jul-22 04:57 UTC.
Position N 45°31' E 036°46'.
Warning: this ship's position is 9 days out of date.

Length 139 m; draft 2.8 m.

Type: Cargo ship. MMSI: 273429570.

Date/timePositionNaut miles runAvg speedWind from/ knotsBaromVisibWave heightAir tempDewpointWater temp
2018-Jul-12 16:05N 45°31' E 036°46'2 7.8
2018-Jul-12 15:49N 45°29' E 036°44'2 7.6
2018-Jul-12 15:31N 45°27' E 036°42'4 7.5
2018-Jul-12 14:58N 45°23' E 036°41'3 6.4
2018-Jul-12 14:30N 45°21' E 036°39'4 7.3
2018-Jul-12 14:00N 45°19' E 036°34'4 6.5
2018-Jul-12 13:25N 45°17' E 036°29'3 6.0
2018-Jul-12 13:00N 45°15' E 036°29'1 0.3
2018-Jul-12 11:26N 45°14' E 036°29'5 0.1
2018-Jul-10 23:15N 45°19' E 036°32'2 7.3
2018-Jul-10 23:00N 45°20' E 036°35'4 7.3
2018-Jul-10 22:30N 45°21' E 036°39'4 6.7
2018-Jul-10 21:59N 45°25' E 036°41'3 6.8
2018-Jul-10 21:30N 45°28' E 036°39'  
2018-Jul-04 06:11N 45°29' E 036°44'1 6.5
2018-Jul-04 06:00N 45°28' E 036°43'3 6.4
2018-Jul-04 05:30N 45°26' E 036°42'3 6.5
2018-Jul-04 05:00N 45°22' E 036°40'3 6.3
2018-Jul-04 04:30N 45°20' E 036°37'4 7.3
2018-Jul-04 04:00N 45°19' E 036°33'  

Dump ship's entire track history